createdAt,value
2018-06-25T00:00:26.551Z,89.40
2018-06-25T00:05:29.329Z,90.50
2018-06-25T00:15:34.792Z,91.80
2018-06-25T00:20:37.467Z,92.10
2018-06-25T00:25:40.166Z,92.20
2018-06-25T00:30:44.935Z,92.70
2018-06-25T00:35:47.623Z,92.90
2018-06-25T00:40:50.272Z,93.10
2018-06-25T00:45:52.995Z,92.50
2018-06-25T00:50:55.602Z,89.10
2018-06-25T00:55:58.194Z,87.60
2018-06-25T01:01:00.824Z,86.10
2018-06-25T01:06:03.840Z,86.10
2018-06-25T01:11:06.586Z,85.70
2018-06-25T01:16:09.223Z,85.70
2018-06-25T01:21:11.927Z,86.40
2018-06-25T01:26:14.664Z,85.80
2018-06-25T01:31:17.265Z,86.10
2018-06-25T01:36:19.917Z,86.80
2018-06-25T01:41:22.542Z,86.90
2018-06-25T01:46:25.202Z,85.80
2018-06-25T01:51:27.871Z,84.60
2018-06-25T01:56:30.679Z,85.20
2018-06-25T02:01:33.295Z,86.10
2018-06-25T02:06:35.970Z,86.70
2018-06-25T02:11:39.100Z,86.90
2018-06-25T02:16:41.698Z,87.20
2018-06-25T02:21:44.360Z,85.40
2018-06-25T02:26:47.064Z,83.70
2018-06-25T02:31:49.738Z,83.50
2018-06-25T02:36:52.347Z,82.60
2018-06-25T02:41:54.953Z,83.10
2018-06-25T02:46:57.712Z,83.30
2018-06-25T02:52:00.346Z,83.90
2018-06-25T02:57:02.976Z,83.60
2018-06-25T03:02:05.662Z,85.20
2018-06-25T03:07:08.394Z,85.80
2018-06-25T03:12:11.168Z,86.80
2018-06-25T03:17:13.811Z,87.80
2018-06-25T03:27:19.435Z,88.70
2018-06-25T03:32:22.084Z,88.40
2018-06-25T03:37:24.743Z,88.00
2018-06-25T03:42:27.358Z,87.80
2018-06-25T03:47:30.014Z,88.10
2018-06-25T03:52:32.622Z,87.40
2018-06-25T03:57:35.241Z,87.90
2018-06-25T04:02:37.936Z,87.90
2018-06-25T04:07:40.581Z,88.30
2018-06-25T04:12:43.306Z,89.20
2018-06-25T04:17:45.938Z,88.20
2018-06-25T04:22:48.612Z,87.70
2018-06-25T04:27:51.233Z,86.10
2018-06-25T04:32:53.839Z,85.90
2018-06-25T04:37:56.555Z,85.60
2018-06-25T04:42:59.159Z,85.20
2018-06-25T04:48:01.738Z,83.70
2018-06-25T04:53:04.839Z,83.10
2018-06-25T04:58:07.491Z,82.70
2018-06-25T05:03:10.178Z,82.40
2018-06-25T05:13:15.479Z,82.80
2018-06-25T05:18:18.095Z,81.40
2018-06-25T05:23:20.687Z,81.60
2018-06-25T05:28:23.868Z,81.20
2018-06-25T05:33:26.474Z,80.50
2018-06-25T05:38:29.207Z,80.10
2018-06-25T05:43:31.934Z,78.90
2018-06-25T05:48:34.764Z,77.80
2018-06-25T05:53:37.547Z,75.30
2018-06-25T05:58:40.142Z,75.90
2018-06-25T06:03:42.783Z,75.50
2018-06-25T06:08:45.566Z,73.10
2018-06-25T06:18:51.109Z,72.50
2018-06-25T06:23:53.883Z,72.90
2018-06-25T06:28:57.035Z,70.70
2018-06-25T06:33:59.923Z,71.10
2018-06-25T06:39:02.724Z,71.00
2018-06-25T06:44:05.379Z,70.10
2018-06-25T06:49:08.340Z,69.80
2018-06-25T06:54:11.008Z,68.30
2018-06-25T06:59:13.671Z,68.60
2018-06-25T07:04:16.402Z,67.80
2018-06-25T07:09:19.104Z,66.90
2018-06-25T07:14:21.792Z,67.60
2018-06-25T07:19:24.412Z,66.50
2018-06-25T07:24:27.107Z,66.70
2018-06-25T07:29:29.739Z,66.10
2018-06-25T07:34:32.350Z,62.30
2018-06-25T07:39:34.986Z,61.30
2018-06-25T07:44:37.615Z,60.70
2018-06-25T07:49:40.407Z,59.70
2018-06-25T07:59:45.699Z,61.70
2018-06-25T08:04:48.444Z,62.70
2018-06-25T08:09:51.171Z,62.10
2018-06-25T08:14:53.759Z,61.10
2018-06-25T08:19:56.602Z,60.70
2018-06-25T08:24:59.226Z,61.90
2018-06-25T08:30:02.046Z,61.90
2018-06-25T08:35:04.547Z,62.70
2018-06-25T08:40:07.277Z,66.10
2018-06-25T08:45:09.944Z,66.80
2018-06-25T08:50:12.834Z,65.60
2018-06-25T09:00:18.015Z,62.90
2018-06-25T09:05:20.803Z,58.90
2018-06-25T09:10:23.517Z,59.00
2018-06-25T09:15:26.349Z,59.70
2018-06-25T09:20:28.900Z,57.10
2018-06-25T09:25:31.532Z,56.40
2018-06-25T09:30:34.134Z,56.70
2018-06-25T09:35:36.763Z,57.40
2018-06-25T09:40:40.471Z,60.90
2018-06-25T09:50:45.616Z,59.60
2018-06-25T09:55:48.210Z,57.20
2018-06-25T10:01:11.934Z,56.20
2018-06-25T10:06:14.668Z,54.70
2018-06-25T10:11:17.274Z,55.60
2018-06-25T10:16:19.955Z,51.80
2018-06-25T10:21:22.652Z,52.10
2018-06-25T10:26:25.274Z,51.90
2018-06-25T10:31:27.912Z,49.60
2018-06-25T10:36:31.282Z,48.60
2018-06-25T10:41:33.895Z,50.00
2018-06-25T10:46:36.516Z,51.90
2018-06-25T10:51:39.173Z,50.10
2018-06-25T10:56:41.831Z,51.70
2018-06-25T11:01:44.473Z,51.00
2018-06-25T11:06:47.099Z,50.50
2018-06-25T11:11:49.752Z,50.40
2018-06-25T11:16:52.426Z,49.90
2018-06-25T11:21:55.047Z,46.40
2018-06-25T11:26:57.772Z,46.80
2018-06-25T11:32:00.518Z,38.60
2018-06-25T11:37:04.190Z,35.90
2018-06-25T11:42:07.057Z,34.60
2018-06-25T11:47:09.715Z,37.10
2018-06-25T11:52:12.370Z,39.70
2018-06-25T11:57:15.040Z,42.00
2018-06-25T12:02:17.731Z,45.00
2018-06-25T12:07:20.400Z,47.50
2018-06-25T12:12:23.083Z,47.30
2018-06-25T12:17:25.749Z,48.80
2018-06-25T12:22:28.372Z,42.60
2018-06-25T12:27:31.139Z,41.40
2018-06-25T12:32:33.780Z,38.90
2018-06-25T12:37:36.438Z,38.70
2018-06-25T12:47:42.495Z,34.80
2018-06-25T12:52:45.291Z,37.90
2018-06-25T12:57:48.171Z,33.90
2018-06-25T13:02:50.952Z,29.80
2018-06-25T13:07:53.567Z,27.00
2018-06-25T13:12:56.934Z,24.60
2018-06-25T13:17:59.620Z,25.90
2018-06-25T13:23:02.272Z,26.10
2018-06-25T13:28:04.919Z,29.10
2018-06-25T13:33:07.769Z,36.20
2018-06-25T13:38:10.579Z,30.80
2018-06-25T13:43:13.304Z,30.70
2018-06-25T13:48:15.921Z,35.00
2018-06-25T13:53:18.584Z,34.50
2018-06-25T13:58:21.233Z,32.50
2018-06-25T14:03:23.919Z,26.20
2018-06-25T14:08:26.587Z,25.70
2018-06-25T14:13:30.118Z,21.80
2018-06-25T14:18:32.812Z,21.40
2018-06-25T14:23:35.527Z,20.00
2018-06-25T14:28:38.235Z,20.30
2018-06-25T14:33:42.992Z,20.40
2018-06-25T14:38:45.651Z,18.60
2018-06-25T14:43:48.368Z,19.30
2018-06-25T14:48:51.003Z,19.90
2018-06-25T14:53:53.751Z,24.80
2018-06-25T14:58:56.496Z,25.90
2018-06-25T15:03:59.160Z,23.30
2018-06-25T15:09:01.956Z,21.80
2018-06-25T15:14:04.839Z,21.80
2018-06-25T15:19:07.554Z,20.90
2018-06-25T15:24:10.192Z,20.50
2018-06-25T15:29:12.810Z,21.50
2018-06-25T15:34:15.514Z,19.20
2018-06-25T15:39:18.222Z,20.40
2018-06-25T15:44:20.889Z,20.30
2018-06-25T15:49:23.791Z,18.30
2018-06-25T15:54:26.627Z,18.60
2018-06-25T15:59:29.275Z,19.30
2018-06-25T16:04:32.952Z,21.50
2018-06-25T16:14:38.272Z,27.10
2018-06-25T16:19:40.986Z,24.30
2018-06-25T16:24:43.646Z,23.90
2018-06-25T16:34:48.875Z,21.90
2018-06-25T16:39:51.535Z,21.00
2018-06-25T16:44:55.234Z,25.00
2018-06-25T16:49:58.600Z,30.40
2018-06-25T16:55:02.891Z,25.30
2018-06-25T17:00:06.639Z,24.90
2018-06-25T17:05:10.332Z,24.80
2018-06-25T17:10:12.976Z,25.80
2018-06-25T17:15:16.743Z,27.80
2018-06-25T17:20:20.409Z,27.20
2018-06-25T17:25:23.182Z,25.00
2018-06-25T17:35:29.560Z,27.50
2018-06-25T17:40:32.277Z,30.60
2018-06-25T17:45:34.918Z,33.90
2018-06-25T17:50:38.209Z,35.20
2018-06-25T17:55:41.816Z,36.90
2018-06-25T18:00:47.512Z,37.40
2018-06-25T18:05:51.144Z,38.80
2018-06-25T18:10:54.921Z,40.50
2018-06-25T18:15:58.222Z,39.10
2018-06-25T18:21:01.856Z,40.60
2018-06-25T18:31:08.678Z,43.80
2018-06-25T18:36:11.363Z,45.60
2018-06-25T18:41:14.111Z,45.20
2018-06-25T18:46:16.747Z,45.90
2018-06-25T18:51:19.423Z,48.90
2018-06-25T18:56:22.158Z,49.70
2018-06-25T19:01:24.879Z,50.50
2018-06-25T19:06:27.539Z,51.70
2018-06-25T19:11:30.207Z,51.50
2018-06-25T19:16:32.888Z,54.20
2018-06-25T19:21:35.527Z,55.80
2018-06-25T19:26:38.306Z,56.80
2018-06-25T19:31:41.222Z,58.50
2018-06-25T19:36:43.861Z,64.50
2018-06-25T19:41:46.602Z,69.10
2018-06-25T19:46:49.345Z,71.10
2018-06-25T19:51:52.859Z,72.20
2018-06-25T19:56:55.567Z,74.10
2018-06-25T20:01:58.246Z,75.40
2018-06-25T20:07:01.174Z,77.50
2018-06-25T20:12:03.970Z,79.10
2018-06-25T20:17:06.693Z,79.70
2018-06-25T20:22:09.529Z,80.30
2018-06-25T20:27:12.203Z,81.40
2018-06-25T20:32:15.001Z,82.50
2018-06-25T20:37:17.723Z,83.10
2018-06-25T20:47:23.532Z,83.90
2018-06-25T20:52:29.009Z,84.30
2018-06-25T20:57:31.904Z,85.40
2018-06-25T21:02:34.689Z,86.80
2018-06-25T21:07:37.393Z,87.90
2018-06-25T21:12:40.143Z,88.60
2018-06-25T21:17:43.206Z,89.20
2018-06-25T21:22:46.016Z,90.10
2018-06-25T22:48:21.780Z,94.50
2018-06-25T22:53:24.380Z,94.60
2018-06-25T22:58:26.988Z,94.70
2018-06-25T23:03:29.606Z,94.50
2018-06-25T23:13:34.767Z,94.80
2018-06-25T23:18:37.374Z,94.70
2018-06-25T23:23:39.987Z,94.90
2018-06-25T23:28:42.736Z,95.00
2018-06-25T23:33:45.346Z,95.40
2018-06-25T23:38:48.029Z,96.00
2018-06-25T23:43:50.683Z,96.20
2018-06-25T23:48:53.302Z,94.70
2018-06-25T23:53:56.150Z,94.80
2018-06-25T23:58:58.804Z,94.30
